Flight Track Log - Related Links

Times and Time Zones

All times are in EDT time to prevent confusion due to time zone crossing. See the LXJ262 flight status page for this flight to view local times or setup timezone preferences in your user account.

Time Position Orientation Groundspeed Altitude Reporting Facility
EDT Latitude Longitude Course Direction KTS MPH feet Rate Location/Type
Thu 05:05:35 PM 30.4233 -86.3831 270° West 255 293 6,000  Level Jacksonville Center
Thu 05:06:35 PM 30.4964 -86.3833 360° North 283 326 9,600 3,050 Climbing Jacksonville Center
Thu 05:07:35 PM 30.5800 -86.3814 North 290 334 12,100 3,267 Climbing Jacksonville Center
Thu 05:09:00 PM 30.8167 -86.7878 270° West  Level FlightAware Approximate
Thu 05:09:35 PM 30.7592 -86.3881 358° North 313 360 19,400  Level Jacksonville Center
Thu 05:10:00 PM 30.8094 -86.8973 264° West  Level FlightAware Approximate
Thu 05:10:35 PM 30.8219 -86.4631 314° West 304 350 21,400  Level Jacksonville Center
Thu 05:11:00 PM 30.8000 -87.0067 270° West  Level FlightAware Approximate
Thu 05:11:35 PM 30.8244 -86.5961 271° West 313 360 22,500  Level Jacksonville Center
Thu 05:12:35 PM 30.8242 -86.7411 270° West 380 437 24,000 750 Climbing Jacksonville Center
Thu 05:13:35 PM 30.8031 -86.8856 260° West 426 490 24,000  Level Jacksonville Center
Thu 05:14:35 PM 30.7756 -87.0317 258° West 453 521 24,000  Level Jacksonville Center
Thu 05:15:35 PM 30.7497 -87.1781 258° West 469 540 24,000  Level Jacksonville Center
Thu 05:16:35 PM 30.7239 -87.3242 258° West 469 540 24,000  Level Jacksonville Center
Thu 05:18:08 PM 30.6881 -87.5328 259° West 472 543 24,000  Level Houston Center
Thu 05:19:10 PM 30.6558 -87.7111 258° West 469 540 24,000  Level Houston Center
Thu 05:20:12 PM 30.6300 -87.8594 259° West 468 539 24,000  Level Houston Center
Thu 05:21:15 PM 30.6028 -88.0086 258° West 469 540 24,000  Level Houston Center
Thu 05:22:17 PM 30.5683 -88.1556 255° West 467 537 24,000  Level Houston Center
Thu 05:23:19 PM 30.5308 -88.3014 253° West 469 540 24,000  Level Houston Center
Thu 05:24:21 PM 30.4950 -88.4481 254° West 469 540 24,000  Level Houston Center
Thu 05:25:23 PM 30.4561 -88.5944 253° West 472 543 24,000  Level Houston Center
Thu 05:26:25 PM 30.4125 -88.7692 254° West 470 541 24,000 -532 Level Houston Center
Thu 05:27:27 PM 30.3750 -88.9117 253° West 465 535 22,900 -1,355 Descending Houston Center
Thu 05:28:29 PM 30.3444 -89.0361 254° West 458 527 21,200 -1,887 Descending Houston Center
Thu 05:29:31 PM 30.3011 -89.2022 253° West 450 518 19,000 -1,984 Descending Houston Center
Thu 05:30:33 PM 30.2653 -89.3411 253° West 451 519 17,100 -1,807 Descending Houston Center
Thu 05:30:54 PM 30.2522 -89.3931 254° West 442 509 16,500 -1,619 Descending Houston Center
Thu 05:31:36 PM 30.2303 -89.4733 252° West 436 502 15,400 -1,672 Descending Houston Center
Thu 05:31:55 PM 30.2194 -89.5247 256° West 424 488 14,800 -1,645 Descending Houston Center
Thu 05:32:38 PM 30.1964 -89.6028 251° West 422 486 13,700 -1,700 Descending Houston Center
Thu 05:32:55 PM 30.1819 -89.6492 250° West 411 473 13,100 -1,645 Descending Houston Center
Thu 05:33:40 PM 30.1494 -89.7150 240° Southwest 386 444 12,000 -1,701 Descending Houston Center
Thu 05:34:02 PM 30.1233 -89.7625 238° Southwest 335 386 11,200 -1,548 Descending Houston Center
Thu 05:34:42 PM 30.1008 -89.8061 239° Southwest 339 390 10,400 -1,701 Descending Houston Center
Thu 05:35:09 PM 30.0781 -89.8508 240° Southwest 294 338 9,300 -2,032 Descending Houston Center
Thu 05:35:44 PM 30.0611 -89.8875 242° Southwest 301 346 8,300 -2,262 Descending Houston Center
Thu 05:36:10 PM 30.0392 -89.9319 240° Southwest 285 328 7,000 -2,419 Descending Houston Center
Thu 05:36:46 PM 30.0136 -89.9833 240° Southwest 289 333 5,800 -1,967 Descending Houston Center
Thu 05:37:11 PM 29.9958 -90.0156 238° Southwest 278 320 5,000 -1,742 Descending Houston Center
Thu 05:37:48 PM 29.9767 -90.0586 243° Southwest 280 322 4,000 -1,574 Descending Houston Center
Thu 05:38:12 PM 29.9606 -90.0867 236° Southwest 255 293 3,400 -968 Descending Houston Center
Thu 05:38:50 PM 29.9422 -90.1272 242° Southwest 264 304 3,000 -393 Descending Houston Center
Thu 05:39:13 PM 29.9289 -90.1503 236° Southwest 219 252 3,000 -97 Level Houston Center
Thu 05:39:52 PM 29.9133 -90.1853 243° Southwest 231 266 2,900 -98 Descending Houston Center
Thu 05:40:14 PM 29.8994 -90.2089 236° Southwest 203 234 2,900 -667 Level Houston Center
Thu 05:40:55 PM 29.8878 -90.2417 248° West 212 244 2,200 -1,082 Descending Houston Center
Thu 05:41:15 PM 29.9033 -90.2639 309° West 194 223 1,800 -968 Descending Houston Center
Thu 05:41:57 PM 29.9264 -90.2731 341° North 188 216 1,200 -896 Descending Houston Center
Thu 05:42:22 PM 29.9472 -90.2647 19° North 153 176 800 -871 Descending Houston Center
Thu 05:42:59 PM 29.9689 -90.2589 13° North 169 194 300 -811 Descending Houston Center
Thu 05:44:00 PM 29.9833 -90.2500 337° Northwest  Level FlightAware Approximate

Login

Don't have an account? Register now (free) for customized features, flight alerts, and more!